Time;durP1;ratioP1;P1;durP2;ratioP2;P2;SDS_P1;SDS_P2;PMS_P1;PMS_P2;Temp;Humidity;BMP_temperature;BMP_pressure;BME280_temperature;BME280_humidity;BME280_pressure;Samples;Min_cycle;Max_cycle;Signal;HPM_P1;HPM_P2
2022/01/08 00:01:17;;;;;;;4.28;1.70;;;1.30;99.90;;;;;;5032120;28;20061;-74
2022/01/08 00:03:42;;;;;;;6.75;1.85;;;1.30;99.90;;;;;;5059271;28;20072;-74
2022/01/08 00:06:08;;;;;;;10.18;1.83;;;1.30;99.90;;;;;;5024524;28;20065;-74
2022/01/08 00:08:34;;;;;;;11.50;2.20;;;1.30;99.90;;;;;;5029442;28;20060;-75
2022/01/08 00:11:00;;;;;;;13.98;1.88;;;1.30;99.90;;;;;;5026447;28;20041;-75
2022/01/08 00:13:26;;;;;;;9.95;1.90;;;1.30;99.90;;;;;;5025340;28;20072;-74
2022/01/08 00:15:52;;;;;;;5.40;1.70;;;1.30;99.90;;;;;;5027643;28;20057;-75
2022/01/08 00:18:17;;;;;;;5.18;1.85;;;1.20;99.90;;;;;;5022448;28;20112;-75
2022/01/08 00:20:43;;;;;;;5.75;1.40;;;1.20;99.90;;;;;;5010639;28;20449;-75
2022/01/08 00:23:10;;;;;;;11.18;1.80;;;1.20;99.90;;;;;;5014421;28;20053;-75
2022/01/08 00:25:36;;;;;;;8.40;1.40;;;1.20;99.90;;;;;;5056438;28;20388;-75
2022/01/08 00:28:01;;;;;;;6.82;1.55;;;1.20;99.90;;;;;;5023545;28;20067;-75
2022/01/08 00:30:30;;;;;;;9.63;1.58;;;1.20;99.90;;;;;;5008100;28;20140;-74
2022/01/08 00:32:56;;;;;;;7.13;1.98;;;1.10;99.90;;;;;;5051875;28;20132;-74
2022/01/08 00:35:23;;;;;;;11.75;2.20;;;1.10;99.90;;;;;;5008991;28;20049;-75
2022/01/08 00:37:49;;;;;;;7.95;1.42;;;1.10;99.90;;;;;;5007841;28;20110;-75
2022/01/08 00:40:15;;;;;;;12.02;1.85;;;1.10;99.90;;;;;;5012355;28;20045;-74
2022/01/08 00:42:40;;;;;;;8.77;2.10;;;1.10;99.90;;;;;;5025502;28;20041;-74
2022/01/08 00:45:06;;;;;;;7.28;1.95;;;1.10;99.90;;;;;;5007077;28;20056;-74
2022/01/08 00:47:32;;;;;;;8.50;2.08;;;1.00;99.90;;;;;;5006193;28;20437;-75
2022/01/08 00:49:59;;;;;;;8.05;1.95;;;1.10;99.90;;;;;;5010452;28;20250;-74
2022/01/08 00:52:25;;;;;;;9.52;1.48;;;1.00;99.90;;;;;;5024580;28;20052;-74
2022/01/08 00:54:50;;;;;;;9.90;2.20;;;1.00;99.90;;;;;;5005794;28;20045;-74
2022/01/08 00:57:16;;;;;;;7.68;2.47;;;1.00;99.90;;;;;;5041323;28;20120;-73
2022/01/08 00:59:42;;;;;;;4.82;1.80;;;1.00;99.90;;;;;;5010042;28;20133;-73
2022/01/08 01:02:07;;;;;;;8.73;2.40;;;1.00;99.90;;;;;;5025200;28;20340;-75
2022/01/08 01:04:33;;;;;;;8.60;2.60;;;1.00;99.90;;;;;;5011035;28;20533;-74
2022/01/08 01:06:59;;;;;;;7.60;2.78;;;1.00;99.90;;;;;;5016983;28;20076;-75
2022/01/08 01:09:24;;;;;;;14.00;2.75;;;1.00;99.90;;;;;;5022847;28;20052;-74
2022/01/08 01:11:55;;;;;;;13.05;3.03;;;1.10;99.90;;;;;;5020998;28;20041;-74
2022/01/08 01:14:21;;;;;;;6.43;3.00;;;1.10;99.90;;;;;;5013900;28;20052;-74
2022/01/08 01:16:47;;;;;;;13.27;3.33;;;1.10;99.90;;;;;;5021343;28;20133;-74
2022/01/08 01:19:13;;;;;;;11.65;3.55;;;1.20;99.90;;;;;;5039854;28;20903;-74
2022/01/08 01:21:39;;;;;;;14.75;3.35;;;1.30;99.90;;;;;;5040570;28;20060;-74
2022/01/08 01:24:10;;;;;;;15.38;3.58;;;1.30;99.90;;;;;;5021857;28;20041;-73
2022/01/08 01:26:40;;;;;;;12.43;3.33;;;1.40;99.90;;;;;;5009874;28;20049;-74
2022/01/08 01:43:37;;;;;;;9.10;3.03;;;1.30;99.90;;;;;;5026254;28;20055;-74
2022/01/08 01:48:47;;;;;;;13.85;2.83;;;1.30;99.90;;;;;;5057864;28;19931;-75
2022/01/08 01:51:23;;;;;;;10.43;2.60;;;1.30;99.90;;;;;;5020262;28;20112;-74
2022/01/08 01:53:50;;;;;;;11.25;2.60;;;1.30;99.90;;;;;;5027129;28;20077;-74
2022/01/08 01:56:19;;;;;;;8.88;2.50;;;1.30;99.90;;;;;;5014415;28;20075;-75
2022/01/08 01:58:46;;;;;;;10.70;2.80;;;1.30;99.90;;;;;;5031272;28;20056;-75
2022/01/08 02:01:12;;;;;;;10.43;2.50;;;1.80;99.90;;;;;;5020117;28;20413;-74
2022/01/08 02:03:39;;;;;;;10.52;2.50;;;1.30;99.90;;;;;;5051007;28;20045;-73
2022/01/08 02:06:06;;;;;;;7.43;2.00;;;1.30;99.90;;;;;;5020474;28;20421;-73
2022/01/08 02:08:33;;;;;;;6.45;1.95;;;1.30;99.90;;;;;;5021209;28;20068;-73
2022/01/08 02:10:59;;;;;;;9.60;2.00;;;1.30;99.90;;;;;;5039737;28;20049;-73
2022/01/08 02:13:26;;;;;;;10.23;1.85;;;1.30;99.90;;;;;;5030069;28;20507;-73
2022/01/08 02:15:54;;;;;;;9.30;1.92;;;1.30;99.90;;;;;;5025201;28;20053;-73
2022/01/08 02:18:21;;;;;;;9.13;1.60;;;1.30;99.90;;;;;;5023269;28;20049;-73
2022/01/08 02:20:47;;;;;;;6.85;1.35;;;1.30;99.90;;;;;;5043284;28;20128;-73
2022/01/08 02:23:13;;;;;;;7.20;1.45;;;1.20;99.90;;;;;;5059777;28;20052;-72
2022/01/08 02:25:39;;;;;;;8.88;1.80;;;1.20;99.90;;;;;;5037208;28;20049;-73
2022/01/08 02:28:05;;;;;;;2.60;1.02;;;1.20;99.90;;;;;;5030578;28;20132;-73
2022/01/08 02:30:31;;;;;;;3.88;1.13;;;1.20;99.90;;;;;;5029791;28;20120;-73
2022/01/08 02:32:57;;;;;;;9.23;1.50;;;1.10;99.90;;;;;;5024884;28;20063;-73
2022/01/08 02:35:23;;;;;;;6.70;1.35;;;1.10;99.90;;;;;;5011166;28;20045;-73
2022/01/08 02:37:50;;;;;;;6.80;1.35;;;1.10;99.90;;;;;;5010841;28;20044;-73
2022/01/08 02:40:18;;;;;;;4.68;1.40;;;1.10;99.90;;;;;;5028261;28;20160;-73
2022/01/08 02:42:54;;;;;;;6.93;1.27;;;1.10;99.90;;;;;;5045482;28;20064;-74
2022/01/08 02:45:21;;;;;;;6.05;1.33;;;1.00;99.90;;;;;;5023034;28;20421;-73
2022/01/08 02:47:48;;;;;;;7.28;1.27;;;1.00;99.90;;;;;;5013220;28;20053;-74
2022/01/08 02:50:15;;;;;;;6.20;1.10;;;1.00;99.90;;;;;;5063094;28;20099;-73
2022/01/08 02:52:46;;;;;;;5.07;0.90;;;1.00;99.90;;;;;;5056469;28;20044;-74
2022/01/08 02:55:20;;;;;;;4.38;1.15;;;1.00;99.90;;;;;;5042765;28;20049;-73
2022/01/08 02:57:47;;;;;;;7.32;1.40;;;1.00;99.90;;;;;;5036311;28;20613;-73
2022/01/08 03:00:16;;;;;;;5.30;1.10;;;1.00;99.90;;;;;;5027239;28;20131;-73
2022/01/08 03:02:52;;;;;;;3.88;1.00;;;1.00;99.90;;;;;;5035880;28;20429;-73
2022/01/08 03:05:18;;;;;;;8.02;1.60;;;1.00;99.90;;;;;;5035932;28;20045;-73
2022/01/08 03:07:46;;;;;;;7.35;1.30;;;0.90;99.90;;;;;;5034053;28;20608;-73
2022/01/08 03:10:14;;;;;;;6.38;1.23;;;0.90;99.90;;;;;;5027802;28;20127;-73
2022/01/08 03:12:42;;;;;;;2.63;1.00;;;0.90;99.90;;;;;;5032893;28;20067;-73
2022/01/08 03:15:15;;;;;;;7.70;1.23;;;0.90;99.90;;;;;;5024778;28;20112;-73
2022/01/08 03:17:44;;;;;;;5.65;0.95;;;0.90;99.90;;;;;;5045958;28;20034;-74
2022/01/08 03:20:12;;;;;;;3.88;1.20;;;0.90;99.90;;;;;;5033088;28;20043;-73
2022/01/08 03:22:39;;;;;;;6.55;1.20;;;0.90;99.90;;;;;;5055168;28;20723;-74
2022/01/08 03:25:06;;;;;;;4.45;1.17;;;0.90;99.90;;;;;;5013282;28;20045;-74
2022/01/08 03:27:32;;;;;;;8.75;0.98;;;0.90;99.90;;;;;;5017060;28;20045;-74
2022/01/08 03:29:57;;;;;;;6.03;1.10;;;0.80;99.90;;;;;;5032758;28;20052;-74
2022/01/08 03:32:24;;;;;;;5.68;1.27;;;0.80;99.90;;;;;;5063584;28;20106;-73
2022/01/08 03:34:49;;;;;;;4.68;1.25;;;0.80;99.90;;;;;;5037522;28;20071;-74
2022/01/08 03:37:15;;;;;;;2.95;1.05;;;0.80;99.90;;;;;;5037842;28;20048;-73
2022/01/08 03:39:42;;;;;;;6.45;1.30;;;0.80;99.90;;;;;;5049974;28;20607;-74
2022/01/08 03:42:08;;;;;;;4.07;1.63;;;0.70;99.90;;;;;;5031786;28;20080;-74
2022/01/08 03:44:34;;;;;;;7.32;1.30;;;0.70;99.90;;;;;;5026499;28;20045;-74
2022/01/08 03:47:22;;;;;;;5.35;1.17;;;0.70;99.90;;;;;;5057312;28;20094;-74
2022/01/08 03:49:46;;;;;;;4.60;1.00;;;0.70;99.90;;;;;;5033146;28;20114;-74
2022/01/08 03:52:12;;;;;;;5.35;1.10;;;0.70;99.90;;;;;;5009718;28;20045;-74
2022/01/08 03:54:39;;;;;;;4.32;1.15;;;0.70;99.90;;;;;;5027168;28;20040;-74
2022/01/08 03:57:05;;;;;;;4.38;0.93;;;0.70;99.90;;;;;;5013916;28;20060;-74
2022/01/08 03:59:30;;;;;;;5.70;1.10;;;0.70;99.90;;;;;;5018012;28;20052;-74
2022/01/08 04:01:57;;;;;;;7.45;1.40;;;0.70;99.90;;;;;;5014562;28;20045;-74
2022/01/08 04:04:22;;;;;;;6.68;1.17;;;0.70;99.90;;;;;;5024145;28;20037;-74
2022/01/08 04:06:48;;;;;;;5.82;1.08;;;0.70;99.90;;;;;;5014952;28;20404;-74
2022/01/08 04:09:14;;;;;;;7.22;1.90;;;0.70;99.90;;;;;;5016989;28;20055;-74
2022/01/08 04:11:40;;;;;;;5.43;1.00;;;0.70;99.90;;;;;;5016086;28;20448;-74
2022/01/08 04:14:06;;;;;;;7.38;1.20;;;0.70;99.90;;;;;;5023288;28;20053;-74
2022/01/08 04:16:35;;;;;;;9.32;1.52;;;0.80;99.90;;;;;;5057557;28;20098;-74
2022/01/08 04:19:01;;;;;;;6.13;1.02;;;0.80;99.90;;;;;;5056882;28;20060;-74
2022/01/08 04:24:06;;;;;;;7.38;1.85;;;0.90;99.90;;;;;;5038881;28;20056;-74
2022/01/08 04:26:31;;;;;;;8.07;1.35;;;0.90;99.90;;;;;;5031846;28;20059;-74
2022/01/08 04:28:57;;;;;;;4.53;1.52;;;0.90;99.90;;;;;;5049197;28;20045;-74
2022/01/08 04:31:24;;;;;;;9.82;1.50;;;0.90;99.90;;;;;;5015330;28;20072;-74
2022/01/08 04:33:51;;;;;;;7.07;1.55;;;1.00;99.90;;;;;;5024371;28;20136;-75
2022/01/08 04:36:17;;;;;;;8.52;1.80;;;0.90;99.90;;;;;;5053677;28;20561;-74
2022/01/08 04:38:43;;;;;;;6.82;1.80;;;1.00;99.90;;;;;;5010229;28;20049;-74
2022/01/08 04:41:09;;;;;;;11.15;1.90;;;1.00;99.90;;;;;;5007749;28;20052;-74
2022/01/08 04:43:37;;;;;;;9.70;2.10;;;1.10;99.90;;;;;;5051975;28;20048;-74
2022/01/08 04:46:06;;;;;;;6.85;1.77;;;1.10;99.90;;;;;;5028471;28;20041;-74
2022/01/08 04:48:32;;;;;;;8.40;2.05;;;1.10;99.90;;;;;;5060368;28;20414;-74
2022/01/08 04:50:57;;;;;;;7.82;1.48;;;1.20;99.90;;;;;;5023470;28;20041;-74
2022/01/08 04:53:23;;;;;;;5.95;1.70;;;1.10;99.90;;;;;;5021198;28;20034;-74
2022/01/08 04:55:48;;;;;;;8.02;1.90;;;1.10;99.90;;;;;;5053651;28;20314;-74
2022/01/08 04:58:14;;;;;;;10.43;2.05;;;1.10;99.90;;;;;;5021094;28;20056;-74
2022/01/08 05:00:40;;;;;;;7.07;2.03;;;1.10;99.90;;;;;;5008382;28;20033;-74
2022/01/08 05:03:06;;;;;;;6.95;1.73;;;1.20;99.90;;;;;;5021604;28;20447;-74
2022/01/08 05:05:32;;;;;;;7.97;2.05;;;1.20;99.90;;;;;;5015500;28;20078;-74
2022/01/08 05:07:58;;;;;;;6.72;1.65;;;1.20;99.90;;;;;;5045592;28;20072;-74
2022/01/08 05:10:24;;;;;;;9.57;1.50;;;1.20;99.90;;;;;;5026642;28;20044;-74
2022/01/08 05:12:49;;;;;;;7.40;2.10;;;1.20;99.90;;;;;;5008628;28;20136;-74
2022/01/08 05:15:16;;;;;;;7.53;1.77;;;1.10;99.90;;;;;;5002930;28;20037;-74
2022/01/08 05:17:43;;;;;;;11.93;1.98;;;1.10;99.90;;;;;;5022789;28;20214;-74
2022/01/08 05:20:12;;;;;;;5.55;1.55;;;1.10;99.90;;;;;;5017008;28;20054;-74
2022/01/08 05:23:01;;;;;;;11.07;1.83;;;1.10;99.90;;;;;;5019819;28;20387;-74
2022/01/08 05:25:27;;;;;;;8.15;1.67;;;1.10;99.90;;;;;;5022085;28;20033;-74
2022/01/08 05:27:53;;;;;;;11.88;1.67;;;1.10;99.90;;;;;;5026426;28;20056;-74
2022/01/08 05:30:20;;;;;;;7.80;1.75;;;1.10;99.90;;;;;;5041842;28;20405;-74
2022/01/08 05:32:47;;;;;;;10.02;1.63;;;1.10;99.90;;;;;;5025043;28;20052;-75
2022/01/08 05:35:13;;;;;;;9.57;1.38;;;1.10;99.90;;;;;;5029852;28;20774;-74
2022/01/08 05:37:39;;;;;;;10.48;1.95;;;1.00;99.90;;;;;;5019870;28;20049;-74
2022/01/08 05:40:05;;;;;;;8.82;1.45;;;1.00;99.90;;;;;;5022876;28;20471;-74
2022/01/08 05:42:30;;;;;;;8.38;1.40;;;1.00;99.90;;;;;;5053307;28;20112;-74
2022/01/08 05:44:56;;;;;;;4.80;1.67;;;1.00;99.90;;;;;;5028723;28;20158;-74
2022/01/08 05:47:22;;;;;;;5.43;1.35;;;0.90;99.90;;;;;;5054766;28;20132;-74
2022/01/08 05:49:48;;;;;;;8.75;1.42;;;0.90;99.90;;;;;;5032279;28;20045;-74
2022/01/08 05:52:14;;;;;;;10.25;1.52;;;0.90;99.90;;;;;;5054493;28;20041;-74
2022/01/08 05:54:40;;;;;;;4.30;1.30;;;0.80;99.90;;;;;;5008360;28;20041;-74
2022/01/08 05:57:06;;;;;;;4.55;1.33;;;0.80;99.90;;;;;;5003297;28;20400;-75
2022/01/08 05:59:32;;;;;;;5.47;1.80;;;0.80;99.90;;;;;;5007817;28;20077;-74
2022/01/08 06:01:58;;;;;;;7.40;1.30;;;0.80;99.90;;;;;;5038901;28;20036;-74
2022/01/08 06:04:24;;;;;;;5.53;1.67;;;0.70;99.90;;;;;;5013215;28;20408;-74
2022/01/08 06:06:50;;;;;;;8.27;1.40;;;0.70;99.90;;;;;;5027529;28;20056;-74
2022/01/08 06:09:16;;;;;;;13.73;1.73;;;0.70;99.90;;;;;;5029856;28;20041;-74
2022/01/08 06:11:42;;;;;;;8.18;2.38;;;0.70;99.90;;;;;;5061951;28;20516;-74
2022/01/08 06:14:08;;;;;;;13.23;2.13;;;0.70;99.90;;;;;;5023688;28;20099;-74
2022/01/08 06:16:35;;;;;;;11.75;2.10;;;0.70;99.90;;;;;;5012387;28;20052;-74
2022/01/08 06:19:04;;;;;;;12.73;2.92;;;0.70;99.90;;;;;;5011949;28;20127;-74
2022/01/08 06:21:29;;;;;;;12.30;2.70;;;0.60;99.90;;;;;;5026493;28;20119;-75
2022/01/08 06:23:55;;;;;;;8.73;2.30;;;0.60;99.90;;;;;;5025676;28;20405;-74
2022/01/08 06:26:21;;;;;;;10.57;2.80;;;0.60;99.90;;;;;;5010569;28;20039;-75
2022/01/08 06:28:49;;;;;;;11.55;2.95;;;0.60;99.90;;;;;;5023855;28;20069;-74
2022/01/08 06:31:15;;;;;;;11.65;3.00;;;0.60;99.90;;;;;;5007839;28;20191;-74
2022/01/08 06:33:41;;;;;;;12.90;3.20;;;0.60;99.90;;;;;;5007725;28;20131;-74
2022/01/08 06:36:07;;;;;;;9.40;3.47;;;0.50;99.90;;;;;;5020954;28;20091;-74
2022/01/08 06:38:33;;;;;;;11.93;3.55;;;0.50;99.90;;;;;;5022478;28;20049;-75
2022/01/08 06:40:58;;;;;;;13.27;3.15;;;0.50;99.90;;;;;;5020538;28;20056;-75
2022/01/08 06:43:24;;;;;;;10.27;3.33;;;0.50;99.90;;;;;;5046937;28;20044;-75
2022/01/08 06:45:50;;;;;;;12.25;3.33;;;0.50;99.90;;;;;;5014100;28;20660;-75
2022/01/08 06:48:15;;;;;;;11.88;3.08;;;0.50;99.90;;;;;;5012594;28;20135;-74
2022/01/08 06:50:41;;;;;;;19.27;3.92;;;0.40;99.90;;;;;;5010659;28;20040;-74
2022/01/08 06:53:07;;;;;;;11.07;3.58;;;0.40;99.90;;;;;;5012369;28;20049;-75
2022/01/08 06:55:33;;;;;;;18.60;4.65;;;0.40;99.90;;;;;;5051682;28;20498;-75
2022/01/08 06:57:59;;;;;;;19.58;4.85;;;0.40;99.90;;;;;;5029123;28;20076;-75
2022/01/08 07:00:25;;;;;;;15.73;4.75;;;0.40;99.90;;;;;;5060416;28;20045;-75
2022/01/08 07:02:51;;;;;;;18.48;5.32;;;0.30;99.90;;;;;;5061172;28;20056;-75
2022/01/08 07:05:16;;;;;;;15.57;4.53;;;0.40;99.90;;;;;;5015224;28;20773;-74
2022/01/08 07:07:42;;;;;;;16.17;5.13;;;0.40;99.90;;;;;;5028409;28;20044;-74
2022/01/08 07:10:08;;;;;;;16.42;5.25;;;0.40;99.90;;;;;;5040477;28;20045;-76
2022/01/08 07:12:34;;;;;;;15.68;4.53;;;0.40;99.90;;;;;;5023910;28;20049;-75
2022/01/08 07:14:59;;;;;;;15.45;5.65;;;0.40;99.90;;;;;;5028011;28;20049;-75
2022/01/08 07:17:25;;;;;;;18.38;5.60;;;0.40;99.90;;;;;;5029718;28;20080;-75
2022/01/08 07:19:51;;;;;;;14.35;5.95;;;0.40;99.90;;;;;;5053544;28;20467;-75
2022/01/08 07:22:16;;;;;;;18.55;5.60;;;0.30;99.90;;;;;;5056665;28;20049;-75
2022/01/08 07:24:42;;;;;;;19.95;6.32;;;0.30;99.90;;;;;;5051721;28;20539;-76
2022/01/08 07:27:08;;;;;;;20.80;5.88;;;0.70;99.90;;;;;;5022778;28;20049;-75
2022/01/08 07:29:34;;;;;;;17.13;6.20;;;0.30;99.90;;;;;;5063661;28;20076;-75
2022/01/08 07:31:59;;;;;;;31.50;6.57;;;0.40;99.90;;;;;;5020232;28;20045;-75
2022/01/08 07:34:25;;;;;;;16.67;5.40;;;0.30;99.90;;;;;;5035375;28;20073;-74
2022/01/08 07:36:51;;;;;;;16.30;5.63;;;0.40;99.90;;;;;;5057797;28;20095;-75
2022/01/08 07:39:16;;;;;;;23.67;6.03;;;0.40;99.90;;;;;;5045111;28;20045;-75
2022/01/08 07:41:42;;;;;;;16.95;5.88;;;0.40;99.90;;;;;;5004952;28;20037;-75
2022/01/08 07:44:07;;;;;;;13.07;4.50;;;0.40;99.90;;;;;;5007940;28;20044;-75
2022/01/08 07:46:33;;;;;;;15.38;5.30;;;0.40;99.90;;;;;;5004032;28;20049;-75
2022/01/08 07:48:59;;;;;;;12.93;4.80;;;0.40;99.90;;;;;;5022147;28;20057;-75
2022/01/08 07:51:24;;;;;;;18.25;5.60;;;0.40;99.90;;;;;;5021381;28;20056;-74
2022/01/08 07:53:50;;;;;;;19.20;5.10;;;0.40;99.90;;;;;;5013816;28;20505;-75
2022/01/08 07:56:16;;;;;;;15.85;5.38;;;0.40;99.90;;;;;;5028140;28;20041;-74
2022/01/08 07:58:41;;;;;;;21.80;7.28;;;0.40;99.90;;;;;;5060513;28;20033;-74
2022/01/08 08:01:07;;;;;;;16.33;4.78;;;0.40;99.90;;;;;;5012905;28;20055;-74
2022/01/08 08:03:33;;;;;;;14.43;4.72;;;0.50;99.90;;;;;;5024010;28;20075;-75
2022/01/08 08:05:58;;;;;;;11.82;4.40;;;0.50;99.90;;;;;;5027139;28;20114;-75
2022/01/08 08:08:24;;;;;;;17.45;4.95;;;0.50;99.90;;;;;;5031628;28;20035;-74
2022/01/08 08:10:50;;;;;;;14.70;4.60;;;0.60;99.90;;;;;;5004996;28;20045;-75
2022/01/08 08:13:17;;;;;;;17.90;5.60;;;0.60;99.90;;;;;;4999652;28;20049;-75
2022/01/08 08:15:43;;;;;;;17.77;5.32;;;0.60;99.90;;;;;;5021654;28;20125;-74
2022/01/08 08:18:10;;;;;;;16.40;5.47;;;0.60;99.90;;;;;;5005809;28;20064;-74
2022/01/08 08:20:36;;;;;;;16.15;4.70;;;0.70;99.90;;;;;;5008290;28;20036;-75
2022/01/08 08:23:02;;;;;;;23.10;5.07;;;0.70;99.90;;;;;;5009762;28;20049;-75
2022/01/08 08:25:27;;;;;;;16.65;5.00;;;0.80;99.90;;;;;;5024777;28;20532;-75
2022/01/08 08:27:53;;;;;;;15.73;4.85;;;0.80;99.90;;;;;;5029372;28;20494;-75
2022/01/08 08:30:20;;;;;;;16.88;4.82;;;0.90;99.90;;;;;;5027232;28;20041;-75
2022/01/08 08:32:47;;;;;;;17.50;4.97;;;0.90;99.90;;;;;;5019259;28;20093;-75
2022/01/08 08:35:14;;;;;;;10.55;4.70;;;0.90;99.90;;;;;;5016556;28;20073;-74
2022/01/08 08:37:40;;;;;;;16.23;5.20;;;1.00;99.90;;;;;;4995826;28;20045;-75
2022/01/08 08:40:08;;;;;;;18.77;4.80;;;1.00;99.90;;;;;;5007219;28;20095;-75
2022/01/08 08:42:34;;;;;;;21.40;5.43;;;1.10;99.90;;;;;;5054313;28;20053;-74
2022/01/08 08:45:00;;;;;;;19.55;5.20;;;1.20;99.90;;;;;;5007302;28;20068;-75
2022/01/08 08:47:26;;;;;;;20.50;5.13;;;1.20;99.90;;;;;;5007725;28;20116;-75
2022/01/08 08:49:51;;;;;;;13.07;4.13;;;1.30;99.90;;;;;;5024634;28;20465;-75
2022/01/08 08:52:17;;;;;;;14.93;4.47;;;1.30;99.90;;;;;;5021535;28;20069;-75
2022/01/08 08:54:43;;;;;;;13.73;4.82;;;1.30;99.90;;;;;;5018906;28;20068;-75
2022/01/08 08:57:10;;;;;;;15.63;4.28;;;1.30;99.90;;;;;;5016029;28;20060;-75
2022/01/08 08:59:36;;;;;;;11.95;4.00;;;1.30;99.90;;;;;;5022222;28;20060;-76
2022/01/08 09:02:02;;;;;;;15.05;4.22;;;1.30;99.90;;;;;;5015012;28;20045;-75
2022/01/08 09:04:28;;;;;;;12.30;3.50;;;1.40;99.90;;;;;;5016968;28;20038;-75
2022/01/08 09:06:56;;;;;;;16.52;4.20;;;1.40;99.90;;;;;;5023706;28;20592;-74
2022/01/08 09:09:26;;;;;;;15.15;4.75;;;1.50;99.90;;;;;;5013960;28;20045;-75
2022/01/08 09:11:51;;;;;;;13.30;4.43;;;1.50;99.90;;;;;;5020946;28;20149;-75
2022/01/08 09:14:17;;;;;;;13.45;4.50;;;1.60;99.90;;;;;;5017926;28;20079;-75
2022/01/08 09:16:48;;;;;;;12.77;4.43;;;1.60;99.90;;;;;;5002179;28;20549;-75
2022/01/08 09:19:15;;;;;;;10.00;4.25;;;1.70;99.90;;;;;;5024689;28;20042;-74
2022/01/08 09:21:41;;;;;;;13.95;4.20;;;1.70;99.90;;;;;;5036220;28;20498;-75
2022/01/08 09:24:07;;;;;;;14.73;4.43;;;1.70;99.90;;;;;;5014849;28;20384;-75
2022/01/08 09:26:33;;;;;;;20.77;4.63;;;1.80;99.90;;;;;;5005340;28;20045;-76
2022/01/08 09:28:59;;;;;;;16.08;4.88;;;1.90;99.90;;;;;;5008050;28;20076;-75
2022/01/08 09:31:25;;;;;;;15.65;4.43;;;1.90;99.90;;;;;;5009219;28;20038;-75
2022/01/08 09:33:50;;;;;;;16.75;4.03;;;1.90;99.90;;;;;;4993771;28;20049;-76
2022/01/08 09:36:16;;;;;;;15.60;4.22;;;1.90;99.90;;;;;;5002453;28;20053;-75
2022/01/08 09:38:42;;;;;;;12.13;3.90;;;1.90;99.90;;;;;;5018440;28;20052;-75
2022/01/08 09:41:08;;;;;;;19.45;4.25;;;1.90;99.90;;;;;;5003220;28;20505;-75
2022/01/08 09:43:36;;;;;;;16.00;3.92;;;1.90;99.90;;;;;;4997620;28;20055;-75
2022/01/08 09:46:02;;;;;;;14.82;4.30;;;1.90;99.90;;;;;;5044177;28;20111;-75
2022/01/08 09:48:28;;;;;;;15.98;4.00;;;1.90;99.90;;;;;;5016250;28;20057;-75
2022/01/08 09:50:53;;;;;;;10.02;3.88;;;2.00;99.90;;;;;;5019741;28;20045;-76
2022/01/08 09:53:21;;;;;;;17.88;4.07;;;2.00;99.90;;;;;;5008613;28;20037;-75
2022/01/08 09:55:47;;;;;;;12.93;3.90;;;2.10;99.90;;;;;;5003685;28;20645;-75
2022/01/08 09:58:12;;;;;;;13.55;3.70;;;2.10;99.90;;;;;;5000205;28;20130;-75
2022/01/08 10:00:38;;;;;;;10.70;4.35;;;2.10;99.90;;;;;;5008354;28;20050;-76
2022/01/08 10:03:27;;;;;;;22.30;3.58;;;2.20;99.90;;;;;;5024097;28;20057;-76
2022/01/08 10:06:00;;;;;;;14.38;4.25;;;2.20;99.90;;;;;;5027575;28;20470;-76
2022/01/08 10:08:31;;;;;;;17.73;3.95;;;2.30;99.90;;;;;;4996981;28;20046;-76
2022/01/08 10:11:05;;;;;;;20.02;4.70;;;2.30;99.90;;;;;;5044569;28;20045;-76
2022/01/08 10:13:34;;;;;;;26.08;4.82;;;2.40;99.90;;;;;;5012503;28;20068;-76
2022/01/08 10:18:46;;;;;;;14.98;3.88;;;2.40;99.90;;;;;;5012111;28;20102;-76
2022/01/08 10:21:22;;;;;;;11.38;3.20;;;2.40;99.90;;;;;;5031618;28;20565;-76
2022/01/08 10:23:53;;;;;;;21.40;4.40;;;2.50;99.90;;;;;;5012122;28;20080;-76
2022/01/08 10:26:20;;;;;;;;;;;2.50;99.90;;;;;;5032499;28;20099;-75
2022/01/08 10:28:52;;;;;;;13.95;3.65;;;2.60;99.90;;;;;;5050360;28;20078;-75
2022/01/08 10:31:30;;;;;;;11.65;3.83;;;2.60;99.90;;;;;;5027078;28;20467;-76
2022/01/08 10:34:01;;;;;;;15.35;3.50;;;2.30;99.90;;;;;;5046958;28;20077;-76
2022/01/08 10:36:31;;;;;;;;;;;2.70;99.90;;;;;;5014421;28;20832;-76
2022/01/08 10:38:59;;;;;;;11.98;3.38;;;2.70;99.90;;;;;;5013127;28;20042;-76
2022/01/08 10:41:27;;;;;;;20.25;3.60;;;2.70;99.90;;;;;;5015648;28;20061;-76
2022/01/08 10:44:17;;;;;;;13.13;3.70;;;2.70;99.90;;;;;;5012317;28;20058;-76
2022/01/08 10:47:13;;;;;;;15.02;4.15;;;2.80;99.90;;;;;;5028483;28;20037;-76
2022/01/08 10:49:48;;;;;;;13.85;3.72;;;2.80;99.90;;;;;;5035408;28;20773;-76
2022/01/08 10:52:16;;;;;;;16.02;4.00;;;2.80;99.90;;;;;;5011180;28;20045;-76
2022/01/08 10:54:47;;;;;;;15.88;3.83;;;2.80;99.90;;;;;;5002924;28;20053;-76
2022/01/08 10:57:14;;;;;;;8.25;3.78;;;2.80;99.90;;;;;;4996545;28;20164;-76
2022/01/08 10:59:41;;;;;;;14.20;5.03;;;3.20;99.90;;;;;;5027770;28;20049;-77
2022/01/08 11:02:15;;;;;;;13.02;4.38;;;2.80;99.90;;;;;;4995109;28;20255;-76
2022/01/08 11:04:48;;;;;;;21.88;5.00;;;2.90;99.90;;;;;;5010596;28;20080;-76
2022/01/08 11:07:18;;;;;;;16.00;5.07;;;2.90;99.90;;;;;;5010299;28;20457;-76
2022/01/08 11:09:46;;;;;;;18.40;5.63;;;2.80;99.90;;;;;;5012647;28;20044;-76
2022/01/08 11:12:16;;;;;;;12.05;4.50;;;2.80;99.90;;;;;;4994477;28;20045;-76
2022/01/08 11:15:00;;;;;;;14.93;4.87;;;2.90;99.90;;;;;;4973461;28;20064;-77
2022/01/08 11:17:37;;;;;;;19.50;5.50;;;2.90;99.90;;;;;;4989627;28;20146;-77
2022/01/08 11:20:34;;;;;;;19.17;6.07;;;2.90;99.90;;;;;;4995151;28;20537;-76
2022/01/08 11:23:02;;;;;;;19.77;6.25;;;2.90;99.90;;;;;;4994824;28;20852;-77
2022/01/08 11:25:38;;;;;;;22.38;6.20;;;3.00;99.90;;;;;;4979960;28;20442;-77
2022/01/08 11:28:08;;;;;;;14.45;5.15;;;3.10;99.90;;;;;;4993903;28;20100;-75
2022/01/08 11:30:41;;;;;;;14.25;5.28;;;3.10;99.90;;;;;;5007869;28;20056;-76
2022/01/08 11:33:16;;;;;;;11.90;5.40;;;3.10;99.90;;;;;;4978563;28;20194;-76
2022/01/08 11:35:43;;;;;;;16.02;5.70;;;3.20;99.90;;;;;;4993544;28;20041;-77
2022/01/08 11:38:11;;;;;;;16.88;6.28;;;3.40;99.90;;;;;;4993127;28;20045;-76
2022/01/08 11:40:40;;;;;;;16.80;7.38;;;4.00;99.90;;;;;;4996256;28;20154;-76
2022/01/08 11:43:08;;;;;;;20.30;5.85;;;3.20;99.90;;;;;;4992489;28;20047;-76
2022/01/08 11:45:37;;;;;;;17.20;6.20;;;3.20;99.90;;;;;;5010437;28;20132;-76
2022/01/08 11:48:06;;;;;;;14.70;5.70;;;3.30;99.90;;;;;;5012948;28;20033;-76
2022/01/08 11:50:33;;;;;;;10.95;4.93;;;3.30;99.90;;;;;;4993483;28;20042;-75
2022/01/08 11:53:41;;;;;;;20.42;5.82;;;3.30;99.90;;;;;;5029734;28;20041;-76
2022/01/08 11:56:19;;;;;;;12.77;6.00;;;3.30;99.90;;;;;;4972073;28;21508;-77
2022/01/08 11:59:05;;;;;;;16.80;6.32;;;3.40;99.90;;;;;;4997151;28;20382;-77
2022/01/08 12:01:30;;;;;;;20.70;6.82;;;3.40;99.90;;;;;;4994136;28;20072;-76
2022/01/08 12:03:56;;;;;;;15.65;5.82;;;3.40;99.90;;;;;;5025811;28;20960;-77
2022/01/08 12:06:25;;;;;;;15.60;5.57;;;3.40;99.90;;;;;;5022058;28;20783;-76
2022/01/08 12:11:58;;;;;;;15.15;5.45;;;3.40;99.90;;;;;;4991772;28;20057;-77
2022/01/08 12:14:36;;;;;;;14.40;6.20;;;3.40;99.90;;;;;;5042422;28;20047;-77
2022/01/08 12:17:20;;;;;;;14.98;6.47;;;3.40;99.90;;;;;;5011791;28;21493;-76
2022/01/08 12:19:57;;;;;;;14.82;6.45;;;3.40;99.90;;;;;;5028511;28;20411;-76
2022/01/08 12:22:23;;;;;;;15.68;7.20;;;3.40;99.90;;;;;;5041098;28;21085;-76
2022/01/08 12:24:51;;;;;;;17.65;7.22;;;3.40;99.90;;;;;;5009414;28;20453;-76
2022/01/08 12:27:20;;;;;;;16.25;7.55;;;3.40;99.90;;;;;;5007187;28;21569;-75
2022/01/08 12:29:46;;;;;;;21.58;8.52;;;3.40;99.90;;;;;;5042141;28;20053;-75
2022/01/08 12:32:35;;;;;;;21.40;7.70;;;3.40;99.90;;;;;;5012407;28;20072;-75
2022/01/08 12:35:18;;;;;;;12.95;7.72;;;3.50;99.90;;;;;;5046969;28;20402;-75
2022/01/08 12:37:55;;;;;;;15.63;8.15;;;3.40;99.90;;;;;;5009691;28;20041;-75
2022/01/08 12:40:47;;;;;;;23.15;8.68;;;3.40;99.90;;;;;;4993107;28;20056;-75
2022/01/08 12:43:31;;;;;;;14.52;8.18;;;3.50;99.90;;;;;;5014077;28;20044;-76
2022/01/08 12:46:19;;;;;;;21.90;9.10;;;3.50;99.90;;;;;;5011988;28;20081;-75
2022/01/08 12:49:03;;;;;;;21.98;9.82;;;3.40;99.90;;;;;;5012056;28;20111;-75
2022/01/08 12:52:05;;;;;;;22.20;9.43;;;3.50;99.90;;;;;;5017099;28;20484;-76
2022/01/08 12:54:31;;;;;;;18.67;9.18;;;3.40;99.90;;;;;;4961586;28;20128;-75
2022/01/08 12:57:00;;;;;;;25.25;10.95;;;3.40;99.90;;;;;;5020681;28;20050;-75
2022/01/08 12:59:39;;;;;;;19.42;9.80;;;3.40;99.90;;;;;;5048915;28;20049;-75
2022/01/08 13:02:09;;;;;;;21.42;11.75;;;3.40;99.90;;;;;;5015553;28;20042;-75
2022/01/08 13:04:38;;;;;;;23.35;11.27;;;3.50;99.90;;;;;;5015036;28;20049;-75
2022/01/08 13:07:04;;;;;;;16.80;10.10;;;3.50;99.90;;;;;;5009982;28;20056;-75
2022/01/08 13:09:30;;;;;;;21.90;11.73;;;3.50;99.90;;;;;;5022059;28;20414;-73
2022/01/08 13:11:56;;;;;;;21.33;11.63;;;3.50;99.90;;;;;;5025061;28;20540;-74
2022/01/08 13:14:22;;;;;;;25.30;13.52;;;3.50;99.90;;;;;;5006745;28;20127;-74
2022/01/08 13:16:53;;;;;;;17.42;10.98;;;3.40;99.90;;;;;;5020740;28;20087;-74
2022/01/08 13:19:24;;;;;;;22.90;12.68;;;3.50;99.90;;;;;;5024629;28;20528;-74
2022/01/08 13:22:02;;;;;;;23.77;11.95;;;3.40;99.90;;;;;;5022123;28;20130;-74